sensor_id;sensor_type;location;lat;lon;timestamp;P1;durP1;ratioP1;P2;durP2;ratioP2
35562;SDS011;21665;40.108;18.302;2023-02-19T00:29:49;127.65;;;72.80;;
35562;SDS011;21665;40.108;18.302;2023-02-19T00:32:17;137.13;;;77.97;;
35562;SDS011;21665;40.108;18.302;2023-02-19T00:34:43;130.05;;;74.88;;
35562;SDS011;21665;40.108;18.302;2023-02-19T00:37:09;132.30;;;76.47;;
35562;SDS011;21665;40.108;18.302;2023-02-19T00:39:36;128.00;;;74.00;;
35562;SDS011;21665;40.108;18.302;2023-02-19T00:42:02;129.63;;;72.05;;
35562;SDS011;21665;40.108;18.302;2023-02-19T00:44:29;139.43;;;78.68;;
35562;SDS011;21665;40.108;18.302;2023-02-19T00:46:55;133.27;;;72.60;;
35562;SDS011;21665;40.108;18.302;2023-02-19T00:49:22;131.05;;;74.88;;
35562;SDS011;21665;40.108;18.302;2023-02-19T00:51:49;154.90;;;81.82;;
35562;SDS011;21665;40.108;18.302;2023-02-19T00:54:17;142.18;;;77.85;;
35562;SDS011;21665;40.108;18.302;2023-02-19T00:56:44;157.95;;;83.22;;
35562;SDS011;21665;40.108;18.302;2023-02-19T00:59:11;138.85;;;78.25;;
35562;SDS011;21665;40.108;18.302;2023-02-19T01:01:37;151.15;;;83.78;;
35562;SDS011;21665;40.108;18.302;2023-02-19T01:04:04;143.32;;;78.15;;
35562;SDS011;21665;40.108;18.302;2023-02-19T01:06:31;126.35;;;74.53;;
35562;SDS011;21665;40.108;18.302;2023-02-19T01:08:57;131.95;;;73.50;;
35562;SDS011;21665;40.108;18.302;2023-02-19T01:11:27;123.85;;;72.35;;
35562;SDS011;21665;40.108;18.302;2023-02-19T01:13:57;124.93;;;74.13;;
35562;SDS011;21665;40.108;18.302;2023-02-19T01:16:24;126.40;;;75.35;;
35562;SDS011;21665;40.108;18.302;2023-02-19T01:18:52;127.35;;;75.07;;
35562;SDS011;21665;40.108;18.302;2023-02-19T01:21:20;118.28;;;73.50;;
35562;SDS011;21665;40.108;18.302;2023-02-19T01:23:49;126.93;;;75.97;;
35562;SDS011;21665;40.108;18.302;2023-02-19T01:26:18;127.47;;;76.18;;
35562;SDS011;21665;40.108;18.302;2023-02-19T01:28:47;128.35;;;74.38;;
35562;SDS011;21665;40.108;18.302;2023-02-19T01:31:18;125.78;;;74.15;;
35562;SDS011;21665;40.108;18.302;2023-02-19T01:33:47;119.50;;;73.22;;
35562;SDS011;21665;40.108;18.302;2023-02-19T01:36:16;127.32;;;78.15;;
35562;SDS011;21665;40.108;18.302;2023-02-19T01:38:42;121.65;;;74.35;;
35562;SDS011;21665;40.108;18.302;2023-02-19T01:41:10;121.78;;;72.60;;
35562;SDS011;21665;40.108;18.302;2023-02-19T01:46:39;111.05;;;69.85;;
35562;SDS011;21665;40.108;18.302;2023-02-19T01:51:45;119.70;;;72.32;;
35562;SDS011;21665;40.108;18.302;2023-02-19T01:54:21;115.57;;;71.03;;
35562;SDS011;21665;40.108;18.302;2023-02-19T01:56:50;110.93;;;68.90;;
35562;SDS011;21665;40.108;18.302;2023-02-19T01:59:18;108.50;;;68.10;;
35562;SDS011;21665;40.108;18.302;2023-02-19T02:01:44;119.30;;;71.68;;
35562;SDS011;21665;40.108;18.302;2023-02-19T02:04:14;109.78;;;67.47;;
35562;SDS011;21665;40.108;18.302;2023-02-19T02:06:44;114.22;;;68.47;;
35562;SDS011;21665;40.108;18.302;2023-02-19T02:09:16;107.60;;;65.97;;
35562;SDS011;21665;40.108;18.302;2023-02-19T02:12:04;120.63;;;73.75;;
35562;SDS011;21665;40.108;18.302;2023-02-19T02:14:34;116.28;;;70.90;;
35562;SDS011;21665;40.108;18.302;2023-02-19T02:22:31;117.95;;;71.05;;
35562;SDS011;21665;40.108;18.302;2023-02-19T02:30:36;135.65;;;80.07;;
35562;SDS011;21665;40.108;18.302;2023-02-19T02:38:22;129.85;;;78.90;;
35562;SDS011;21665;40.108;18.302;2023-02-19T02:40:53;151.07;;;89.20;;
35562;SDS011;21665;40.108;18.302;2023-02-19T02:43:21;147.75;;;87.13;;
35562;SDS011;21665;40.108;18.302;2023-02-19T02:45:50;170.35;;;97.88;;
35562;SDS011;21665;40.108;18.302;2023-02-19T02:50:57;169.57;;;97.22;;
35562;SDS011;21665;40.108;18.302;2023-02-19T02:53:53;145.20;;;77.63;;
35562;SDS011;21665;40.108;18.302;2023-02-19T02:56:43;200.32;;;109.63;;
35562;SDS011;21665;40.108;18.302;2023-02-19T02:59:14;199.93;;;107.40;;
35562;SDS011;21665;40.108;18.302;2023-02-19T03:01:45;184.25;;;99.65;;
35562;SDS011;21665;40.108;18.302;2023-02-19T03:10:32;198.43;;;101.30;;
35562;SDS011;21665;40.108;18.302;2023-02-19T03:13:04;201.38;;;104.28;;
35562;SDS011;21665;40.108;18.302;2023-02-19T03:15:56;181.90;;;96.90;;
35562;SDS011;21665;40.108;18.302;2023-02-19T03:18:51;184.43;;;97.38;;
35562;SDS011;21665;40.108;18.302;2023-02-19T03:21:40;173.80;;;94.30;;
35562;SDS011;21665;40.108;18.302;2023-02-19T03:24:09;170.43;;;93.85;;
35562;SDS011;21665;40.108;18.302;2023-02-19T03:26:56;171.43;;;94.82;;
35562;SDS011;21665;40.108;18.302;2023-02-19T03:29:30;200.05;;;106.75;;
35562;SDS011;21665;40.108;18.302;2023-02-19T03:33:06;186.60;;;101.65;;
35562;SDS011;21665;40.108;18.302;2023-02-19T03:35:16;169.60;;;92.60;;
35562;SDS011;21665;40.108;18.302;2023-02-19T03:38:02;179.40;;;99.00;;
35562;SDS011;21665;40.108;18.302;2023-02-19T03:45:57;156.30;;;88.37;;
35562;SDS011;21665;40.108;18.302;2023-02-19T03:48:33;156.07;;;89.05;;
35562;SDS011;21665;40.108;18.302;2023-02-19T03:51:11;152.60;;;87.20;;
35562;SDS011;21665;40.108;18.302;2023-02-19T03:56:41;156.32;;;88.90;;
35562;SDS011;21665;40.108;18.302;2023-02-19T04:04:30;152.13;;;87.97;;
35562;SDS011;21665;40.108;18.302;2023-02-19T04:07:03;149.65;;;84.20;;
35562;SDS011;21665;40.108;18.302;2023-02-19T04:09:40;164.20;;;91.82;;
35562;SDS011;21665;40.108;18.302;2023-02-19T04:12:15;151.85;;;85.20;;
35562;SDS011;21665;40.108;18.302;2023-02-19T04:14:46;153.48;;;86.80;;
35562;SDS011;21665;40.108;18.302;2023-02-19T04:17:36;146.98;;;86.38;;
35562;SDS011;21665;40.108;18.302;2023-02-19T04:20:09;155.15;;;85.55;;
35562;SDS011;21665;40.108;18.302;2023-02-19T04:22:36;150.52;;;82.53;;
35562;SDS011;21665;40.108;18.302;2023-02-19T04:25:04;149.05;;;85.05;;
35562;SDS011;21665;40.108;18.302;2023-02-19T04:27:34;152.32;;;87.18;;
35562;SDS011;21665;40.108;18.302;2023-02-19T04:30:03;140.90;;;79.72;;
35562;SDS011;21665;40.108;18.302;2023-02-19T04:32:31;134.57;;;79.90;;
35562;SDS011;21665;40.108;18.302;2023-02-19T04:34:58;141.18;;;80.47;;
35562;SDS011;21665;40.108;18.302;2023-02-19T04:37:24;137.80;;;80.65;;
35562;SDS011;21665;40.108;18.302;2023-02-19T04:39:51;142.40;;;79.55;;
35562;SDS011;21665;40.108;18.302;2023-02-19T04:42:17;131.55;;;78.43;;
35562;SDS011;21665;40.108;18.302;2023-02-19T04:44:43;137.85;;;79.38;;
35562;SDS011;21665;40.108;18.302;2023-02-19T04:47:10;130.75;;;76.45;;
35562;SDS011;21665;40.108;18.302;2023-02-19T04:49:36;137.05;;;79.15;;
35562;SDS011;21665;40.108;18.302;2023-02-19T04:52:03;124.10;;;73.18;;
35562;SDS011;21665;40.108;18.302;2023-02-19T04:54:29;122.28;;;72.93;;
35562;SDS011;21665;40.108;18.302;2023-02-19T04:56:58;124.63;;;74.25;;
35562;SDS011;21665;40.108;18.302;2023-02-19T04:59:26;125.03;;;74.68;;
35562;SDS011;21665;40.108;18.302;2023-02-19T05:01:53;130.45;;;73.20;;
35562;SDS011;21665;40.108;18.302;2023-02-19T05:04:19;124.13;;;74.22;;
35562;SDS011;21665;40.108;18.302;2023-02-19T05:06:46;109.53;;;66.72;;
35562;SDS011;21665;40.108;18.302;2023-02-19T05:09:12;117.93;;;71.15;;
35562;SDS011;21665;40.108;18.302;2023-02-19T05:11:39;115.80;;;68.22;;
35562;SDS011;21665;40.108;18.302;2023-02-19T05:14:05;109.13;;;66.15;;
35562;SDS011;21665;40.108;18.302;2023-02-19T05:16:31;105.70;;;64.30;;
35562;SDS011;21665;40.108;18.302;2023-02-19T05:18:58;106.13;;;64.18;;
35562;SDS011;21665;40.108;18.302;2023-02-19T05:21:25;112.10;;;67.15;;
35562;SDS011;21665;40.108;18.302;2023-02-19T05:23:55;105.45;;;64.75;;
35562;SDS011;21665;40.108;18.302;2023-02-19T05:26:22;111.45;;;66.93;;
35562;SDS011;21665;40.108;18.302;2023-02-19T05:28:50;112.68;;;65.85;;
35562;SDS011;21665;40.108;18.302;2023-02-19T05:31:18;115.78;;;67.20;;
35562;SDS011;21665;40.108;18.302;2023-02-19T05:33:45;111.47;;;66.22;;
35562;SDS011;21665;40.108;18.302;2023-02-19T05:36:16;107.32;;;67.55;;
35562;SDS011;21665;40.108;18.302;2023-02-19T05:38:43;120.68;;;70.53;;
35562;SDS011;21665;40.108;18.302;2023-02-19T05:41:14;120.25;;;67.68;;
35562;SDS011;21665;40.108;18.302;2023-02-19T05:43:43;121.25;;;68.90;;
35562;SDS011;21665;40.108;18.302;2023-02-19T05:46:12;130.82;;;71.70;;
35562;SDS011;21665;40.108;18.302;2023-02-19T05:48:41;124.15;;;69.72;;
35562;SDS011;21665;40.108;18.302;2023-02-19T05:51:12;122.20;;;69.13;;
35562;SDS011;21665;40.108;18.302;2023-02-19T05:58:57;124.78;;;68.38;;
35562;SDS011;21665;40.108;18.302;2023-02-19T06:01:28;122.40;;;66.60;;
35562;SDS011;21665;40.108;18.302;2023-02-19T06:03:55;126.43;;;69.85;;
35562;SDS011;21665;40.108;18.302;2023-02-19T06:06:22;116.75;;;67.13;;
35562;SDS011;21665;40.108;18.302;2023-02-19T06:08:49;150.63;;;80.45;;
35562;SDS011;21665;40.108;18.302;2023-02-19T06:11:16;165.85;;;88.53;;
35562;SDS011;21665;40.108;18.302;2023-02-19T06:13:43;177.73;;;91.78;;
35562;SDS011;21665;40.108;18.302;2023-02-19T06:16:09;178.07;;;90.57;;
35562;SDS011;21665;40.108;18.302;2023-02-19T06:18:36;185.07;;;86.68;;
35562;SDS011;21665;40.108;18.302;2023-02-19T06:21:06;284.88;;;87.60;;
35562;SDS011;21665;40.108;18.302;2023-02-19T06:23:34;269.08;;;95.20;;
35562;SDS011;21665;40.108;18.302;2023-02-19T06:26:08;310.67;;;90.25;;
35562;SDS011;21665;40.108;18.302;2023-02-19T06:28:36;314.50;;;90.13;;
35562;SDS011;21665;40.108;18.302;2023-02-19T06:31:04;233.48;;;80.35;;
35562;SDS011;21665;40.108;18.302;2023-02-19T06:33:31;203.30;;;80.63;;
35562;SDS011;21665;40.108;18.302;2023-02-19T06:35:58;162.07;;;75.82;;
35562;SDS011;21665;40.108;18.302;2023-02-19T06:38:26;119.47;;;64.68;;
35562;SDS011;21665;40.108;18.302;2023-02-19T06:40:53;130.75;;;64.88;;
35562;SDS011;21665;40.108;18.302;2023-02-19T06:43:20;150.98;;;70.35;;
35562;SDS011;21665;40.108;18.302;2023-02-19T06:45:47;150.40;;;67.97;;
35562;SDS011;21665;40.108;18.302;2023-02-19T06:48:13;125.10;;;65.07;;
35562;SDS011;21665;40.108;18.302;2023-02-19T06:50:39;149.63;;;71.90;;
35562;SDS011;21665;40.108;18.302;2023-02-19T06:53:06;116.25;;;62.50;;
35562;SDS011;21665;40.108;18.302;2023-02-19T06:55:34;90.18;;;58.67;;
35562;SDS011;21665;40.108;18.302;2023-02-19T06:58:00;69.55;;;52.15;;
35562;SDS011;21665;40.108;18.302;2023-02-19T07:00:26;75.97;;;54.38;;
35562;SDS011;21665;40.108;18.302;2023-02-19T07:02:53;69.32;;;53.95;;
35562;SDS011;21665;40.108;18.302;2023-02-19T07:05:21;72.32;;;53.83;;
35562;SDS011;21665;40.108;18.302;2023-02-19T07:07:48;59.33;;;52.70;;
35562;SDS011;21665;40.108;18.302;2023-02-19T07:10:15;56.63;;;50.45;;
35562;SDS011;21665;40.108;18.302;2023-02-19T07:12:42;57.90;;;51.58;;
35562;SDS011;21665;40.108;18.302;2023-02-19T07:15:12;68.28;;;58.30;;
35562;SDS011;21665;40.108;18.302;2023-02-19T07:17:39;63.50;;;56.70;;
35562;SDS011;21665;40.108;18.302;2023-02-19T07:20:06;67.20;;;59.53;;
35562;SDS011;21665;40.108;18.302;2023-02-19T07:22:41;68.07;;;60.58;;
35562;SDS011;21665;40.108;18.302;2023-02-19T07:25:08;65.38;;;58.40;;
35562;SDS011;21665;40.108;18.302;2023-02-19T07:27:34;62.10;;;55.45;;
35562;SDS011;21665;40.108;18.302;2023-02-19T07:30:04;61.22;;;54.53;;
35562;SDS011;21665;40.108;18.302;2023-02-19T07:32:31;61.72;;;54.92;;
35562;SDS011;21665;40.108;18.302;2023-02-19T07:35:18;64.35;;;57.33;;
35562;SDS011;21665;40.108;18.302;2023-02-19T07:37:44;67.57;;;59.88;;
35562;SDS011;21665;40.108;18.302;2023-02-19T07:40:11;63.45;;;56.28;;
35562;SDS011;21665;40.108;18.302;2023-02-19T08:01:46;68.22;;;60.88;;
35562;SDS011;21665;40.108;18.302;2023-02-19T08:04:31;52.30;;;46.80;;
35562;SDS011;21665;40.108;18.302;2023-02-19T08:06:57;46.08;;;41.17;;
35562;SDS011;21665;40.108;18.302;2023-02-19T08:09:23;39.03;;;35.10;;
35562;SDS011;21665;40.108;18.302;2023-02-19T08:11:50;31.98;;;29.10;;
35562;SDS011;21665;40.108;18.302;2023-02-19T08:14:35;30.10;;;27.15;;
35562;SDS011;21665;40.108;18.302;2023-02-19T08:17:01;27.17;;;24.80;;
35562;SDS011;21665;40.108;18.302;2023-02-19T08:19:28;27.85;;;25.05;;
35562;SDS011;21665;40.108;18.302;2023-02-19T08:21:54;27.98;;;25.58;;
35562;SDS011;21665;40.108;18.302;2023-02-19T08:24:20;27.70;;;25.10;;
35562;SDS011;21665;40.108;18.302;2023-02-19T08:26:46;27.38;;;24.67;;
35562;SDS011;21665;40.108;18.302;2023-02-19T08:29:16;28.35;;;25.83;;
35562;SDS011;21665;40.108;18.302;2023-02-19T08:31:42;30.60;;;27.90;;
35562;SDS011;21665;40.108;18.302;2023-02-19T08:34:08;30.75;;;27.95;;
35562;SDS011;21665;40.108;18.302;2023-02-19T08:36:35;29.95;;;27.20;;
35562;SDS011;21665;40.108;18.302;2023-02-19T08:39:02;29.52;;;26.85;;
35562;SDS011;21665;40.108;18.302;2023-02-19T08:41:28;30.02;;;27.42;;
35562;SDS011;21665;40.108;18.302;2023-02-19T08:43:54;31.52;;;27.95;;
35562;SDS011;21665;40.108;18.302;2023-02-19T08:46:21;31.27;;;28.40;;
35562;SDS011;21665;40.108;18.302;2023-02-19T08:48:47;30.92;;;28.08;;
35562;SDS011;21665;40.108;18.302;2023-02-19T08:51:14;30.13;;;27.23;;
35562;SDS011;21665;40.108;18.302;2023-02-19T08:53:42;30.70;;;27.67;;
35562;SDS011;21665;40.108;18.302;2023-02-19T08:56:10;31.33;;;28.42;;
35562;SDS011;21665;40.108;18.302;2023-02-19T08:58:39;32.55;;;29.30;;
35562;SDS011;21665;40.108;18.302;2023-02-19T09:01:10;29.50;;;26.58;;
35562;SDS011;21665;40.108;18.302;2023-02-19T09:03:39;28.65;;;25.70;;
35562;SDS011;21665;40.108;18.302;2023-02-19T09:06:06;28.92;;;26.02;;
35562;SDS011;21665;40.108;18.302;2023-02-19T09:08:32;28.95;;;26.25;;
35562;SDS011;21665;40.108;18.302;2023-02-19T09:10:59;27.83;;;25.42;;
35562;SDS011;21665;40.108;18.302;2023-02-19T09:13:27;27.15;;;24.63;;
35562;SDS011;21665;40.108;18.302;2023-02-19T09:15:54;26.27;;;23.77;;
35562;SDS011;21665;40.108;18.302;2023-02-19T09:18:28;27.42;;;24.85;;
35562;SDS011;21665;40.108;18.302;2023-02-19T09:20:54;25.70;;;23.35;;
35562;SDS011;21665;40.108;18.302;2023-02-19T09:23:27;25.58;;;23.20;;
35562;SDS011;21665;40.108;18.302;2023-02-19T09:25:57;24.98;;;22.90;;
35562;SDS011;21665;40.108;18.302;2023-02-19T09:28:26;24.80;;;22.75;;
35562;SDS011;21665;40.108;18.302;2023-02-19T09:30:52;25.20;;;23.00;;
35562;SDS011;21665;40.108;18.302;2023-02-19T09:33:19;26.45;;;24.20;;
35562;SDS011;21665;40.108;18.302;2023-02-19T09:35:46;26.65;;;24.10;;
35562;SDS011;21665;40.108;18.302;2023-02-19T09:38:12;26.75;;;24.45;;
35562;SDS011;21665;40.108;18.302;2023-02-19T09:40:39;26.75;;;24.35;;
35562;SDS011;21665;40.108;18.302;2023-02-19T09:43:10;27.73;;;25.25;;
35562;SDS011;21665;40.108;18.302;2023-02-19T09:45:41;27.42;;;24.77;;
35562;SDS011;21665;40.108;18.302;2023-02-19T09:48:08;26.55;;;24.08;;
35562;SDS011;21665;40.108;18.302;2023-02-19T09:50:38;25.95;;;23.85;;
35562;SDS011;21665;40.108;18.302;2023-02-19T09:53:12;27.58;;;24.92;;
35562;SDS011;21665;40.108;18.302;2023-02-19T09:55:47;27.85;;;25.15;;
35562;SDS011;21665;40.108;18.302;2023-02-19T10:00:52;26.80;;;24.40;;
35562;SDS011;21665;40.108;18.302;2023-02-19T10:03:24;25.05;;;22.73;;
35562;SDS011;21665;40.108;18.302;2023-02-19T10:05:58;24.50;;;22.30;;
35562;SDS011;21665;40.108;18.302;2023-02-19T10:32:35;25.95;;;23.75;;
35562;SDS011;21665;40.108;18.302;2023-02-19T10:35:10;23.77;;;21.75;;
35562;SDS011;21665;40.108;18.302;2023-02-19T10:37:45;24.58;;;22.45;;
35562;SDS011;21665;40.108;18.302;2023-02-19T10:40:15;24.25;;;22.35;;
35562;SDS011;21665;40.108;18.302;2023-02-19T10:42:48;24.02;;;22.13;;
35562;SDS011;21665;40.108;18.302;2023-02-19T10:45:22;24.08;;;22.02;;
35562;SDS011;21665;40.108;18.302;2023-02-19T10:47:54;23.98;;;22.17;;
35562;SDS011;21665;40.108;18.302;2023-02-19T10:50:26;24.83;;;22.77;;
35562;SDS011;21665;40.108;18.302;2023-02-19T10:53:03;25.17;;;23.23;;
35562;SDS011;21665;40.108;18.302;2023-02-19T10:55:31;24.98;;;22.98;;
35562;SDS011;21665;40.108;18.302;2023-02-19T10:58:42;24.75;;;22.80;;
35562;SDS011;21665;40.108;18.302;2023-02-19T11:01:08;24.35;;;22.38;;
35562;SDS011;21665;40.108;18.302;2023-02-19T11:03:36;24.08;;;22.20;;
35562;SDS011;21665;40.108;18.302;2023-02-19T11:06:04;25.38;;;23.13;;
35562;SDS011;21665;40.108;18.302;2023-02-19T11:08:44;26.00;;;23.55;;
35562;SDS011;21665;40.108;18.302;2023-02-19T11:11:21;29.13;;;26.58;;
35562;SDS011;21665;40.108;18.302;2023-02-19T11:13:51;25.58;;;23.20;;
35562;SDS011;21665;40.108;18.302;2023-02-19T11:16:23;25.52;;;23.17;;
35562;SDS011;21665;40.108;18.302;2023-02-19T11:19:15;24.85;;;22.77;;
35562;SDS011;21665;40.108;18.302;2023-02-19T11:21:55;32.90;;;29.70;;
35562;SDS011;21665;40.108;18.302;2023-02-19T11:24:25;30.52;;;27.58;;
35562;SDS011;21665;40.108;18.302;2023-02-19T11:26:54;32.40;;;29.35;;
35562;SDS011;21665;40.108;18.302;2023-02-19T11:29:22;25.35;;;23.27;;
35562;SDS011;21665;40.108;18.302;2023-02-19T11:31:53;24.88;;;22.80;;
35562;SDS011;21665;40.108;18.302;2023-02-19T11:37:07;24.48;;;22.63;;
35562;SDS011;21665;40.108;18.302;2023-02-19T11:39:35;25.10;;;23.10;;
35562;SDS011;21665;40.108;18.302;2023-02-19T11:42:23;25.75;;;23.63;;
35562;SDS011;21665;40.108;18.302;2023-02-19T11:47:53;24.98;;;22.98;;
35562;SDS011;21665;40.108;18.302;2023-02-19T11:50:46;23.70;;;21.90;;
35562;SDS011;21665;40.108;18.302;2023-02-19T11:53:26;23.35;;;21.58;;
35562;SDS011;21665;40.108;18.302;2023-02-19T12:01:15;23.75;;;21.13;;
35562;SDS011;21665;40.108;18.302;2023-02-19T12:06:56;22.65;;;21.00;;
35562;SDS011;21665;40.108;18.302;2023-02-19T12:09:59;23.55;;;21.65;;
35562;SDS011;21665;40.108;18.302;2023-02-19T12:12:43;32.65;;;29.17;;
35562;SDS011;21665;40.108;18.302;2023-02-19T12:15:34;28.13;;;25.23;;
35562;SDS011;21665;40.108;18.302;2023-02-19T12:23:46;27.92;;;25.13;;
35562;SDS011;21665;40.108;18.302;2023-02-19T12:26:23;35.67;;;31.88;;
35562;SDS011;21665;40.108;18.302;2023-02-19T12:31:32;25.88;;;23.52;;
35562;SDS011;21665;40.108;18.302;2023-02-19T12:36:56;22.42;;;20.80;;
35562;SDS011;21665;40.108;18.302;2023-02-19T12:45:39;23.17;;;21.38;;
35562;SDS011;21665;40.108;18.302;2023-02-19T12:51:16;24.17;;;22.17;;
35562;SDS011;21665;40.108;18.302;2023-02-19T12:59:38;22.42;;;20.92;;
35562;SDS011;21665;40.108;18.302;2023-02-19T13:02:18;23.45;;;21.75;;
35562;SDS011;21665;40.108;18.302;2023-02-19T13:05:20;22.55;;;21.05;;
35562;SDS011;21665;40.108;18.302;2023-02-19T13:07:52;22.73;;;21.15;;
35562;SDS011;21665;40.108;18.302;2023-02-19T13:10:32;22.92;;;21.13;;
35562;SDS011;21665;40.108;18.302;2023-02-19T13:13:11;23.60;;;21.90;;
35562;SDS011;21665;40.108;18.302;2023-02-19T13:15:42;23.27;;;21.58;;
35562;SDS011;21665;40.108;18.302;2023-02-19T13:18:15;25.38;;;23.13;;
35562;SDS011;21665;40.108;18.302;2023-02-19T13:20:56;26.55;;;24.20;;
35562;SDS011;21665;40.108;18.302;2023-02-19T13:23:30;22.92;;;21.10;;
35562;SDS011;21665;40.108;18.302;2023-02-19T13:38:01;22.60;;;20.95;;
35562;SDS011;21665;40.108;18.302;2023-02-19T13:40:35;24.20;;;22.42;;
35562;SDS011;21665;40.108;18.302;2023-02-19T13:43:52;23.23;;;21.40;;
35562;SDS011;21665;40.108;18.302;2023-02-19T13:46:07;22.15;;;20.65;;
35562;SDS011;21665;40.108;18.302;2023-02-19T13:48:37;21.90;;;20.50;;
35562;SDS011;21665;40.108;18.302;2023-02-19T14:04:20;25.50;;;23.50;;
35562;SDS011;21665;40.108;18.302;2023-02-19T14:14:41;22.27;;;20.77;;
35562;SDS011;21665;40.108;18.302;2023-02-19T14:28:19;21.92;;;20.33;;
35562;SDS011;21665;40.108;18.302;2023-02-19T14:30:51;22.00;;;20.50;;
35562;SDS011;21665;40.108;18.302;2023-02-19T14:33:22;21.75;;;20.33;;
35562;SDS011;21665;40.108;18.302;2023-02-19T14:39:19;22.08;;;20.52;;
35562;SDS011;21665;40.108;18.302;2023-02-19T14:41:51;21.95;;;20.45;;
35562;SDS011;21665;40.108;18.302;2023-02-19T14:44:21;22.67;;;21.10;;
35562;SDS011;21665;40.108;18.302;2023-02-19T14:47:01;23.25;;;21.02;;
35562;SDS011;21665;40.108;18.302;2023-02-19T14:49:44;22.30;;;20.67;;
35562;SDS011;21665;40.108;18.302;2023-02-19T14:52:22;25.63;;;23.52;;
35562;SDS011;21665;40.108;18.302;2023-02-19T14:57:49;28.23;;;25.73;;
35562;SDS011;21665;40.108;18.302;2023-02-19T15:02:51;23.70;;;21.85;;
35562;SDS011;21665;40.108;18.302;2023-02-19T15:05:25;22.13;;;20.42;;
35562;SDS011;21665;40.108;18.302;2023-02-19T15:07:54;22.58;;;20.63;;
35562;SDS011;21665;40.108;18.302;2023-02-19T15:10:24;21.38;;;19.85;;
35562;SDS011;21665;40.108;18.302;2023-02-19T15:13:03;21.95;;;20.40;;
35562;SDS011;21665;40.108;18.302;2023-02-19T15:15:34;22.25;;;20.40;;
35562;SDS011;21665;40.108;18.302;2023-02-19T15:18:05;23.90;;;21.90;;
35562;SDS011;21665;40.108;18.302;2023-02-19T15:20:35;23.80;;;21.92;;
35562;SDS011;21665;40.108;18.302;2023-02-19T15:23:06;23.38;;;21.55;;
35562;SDS011;21665;40.108;18.302;2023-02-19T15:25:33;20.25;;;18.95;;
35562;SDS011;21665;40.108;18.302;2023-02-19T15:28:24;21.15;;;19.40;;
35562;SDS011;21665;40.108;18.302;2023-02-19T15:33:25;20.35;;;18.77;;
35562;SDS011;21665;40.108;18.302;2023-02-19T15:35:52;20.30;;;19.00;;
35562;SDS011;21665;40.108;18.302;2023-02-19T15:38:23;20.45;;;18.95;;
35562;SDS011;21665;40.108;18.302;2023-02-19T15:40:50;21.50;;;19.88;;
35562;SDS011;21665;40.108;18.302;2023-02-19T15:46:01;21.77;;;20.10;;
35562;SDS011;21665;40.108;18.302;2023-02-19T15:48:39;20.13;;;18.65;;
35562;SDS011;21665;40.108;18.302;2023-02-19T15:51:14;22.13;;;20.15;;
35562;SDS011;21665;40.108;18.302;2023-02-19T15:53:51;20.58;;;18.90;;
35562;SDS011;21665;40.108;18.302;2023-02-19T15:56:30;20.45;;;18.95;;
35562;SDS011;21665;40.108;18.302;2023-02-19T16:07:42;20.93;;;19.43;;
35562;SDS011;21665;40.108;18.302;2023-02-19T16:10:25;20.73;;;19.05;;
35562;SDS011;21665;40.108;18.302;2023-02-19T16:12:58;22.00;;;19.02;;
35562;SDS011;21665;40.108;18.302;2023-02-19T16:15:26;21.08;;;19.55;;
35562;SDS011;21665;40.108;18.302;2023-02-19T16:17:54;21.05;;;19.45;;
35562;SDS011;21665;40.108;18.302;2023-02-19T16:20:26;22.35;;;20.63;;
35562;SDS011;21665;40.108;18.302;2023-02-19T16:22:58;22.52;;;20.75;;
35562;SDS011;21665;40.108;18.302;2023-02-19T16:25:39;21.83;;;20.13;;
35562;SDS011;21665;40.108;18.302;2023-02-19T16:28:17;23.52;;;21.73;;
35562;SDS011;21665;40.108;18.302;2023-02-19T16:30:54;23.02;;;21.33;;
35562;SDS011;21665;40.108;18.302;2023-02-19T16:33:32;22.50;;;20.80;;
35562;SDS011;21665;40.108;18.302;2023-02-19T16:36:17;24.27;;;22.35;;
35562;SDS011;21665;40.108;18.302;2023-02-19T16:38:57;23.38;;;21.52;;
35562;SDS011;21665;40.108;18.302;2023-02-19T16:46:46;23.50;;;21.70;;
35562;SDS011;21665;40.108;18.302;2023-02-19T16:49:14;26.30;;;23.90;;
35562;SDS011;21665;40.108;18.302;2023-02-19T16:51:46;26.13;;;24.33;;
35562;SDS011;21665;40.108;18.302;2023-02-19T16:54:25;25.90;;;23.80;;
35562;SDS011;21665;40.108;18.302;2023-02-19T16:56:59;26.83;;;24.65;;
35562;SDS011;21665;40.108;18.302;2023-02-19T16:59:39;27.17;;;24.95;;
35562;SDS011;21665;40.108;18.302;2023-02-19T17:02:20;27.27;;;24.88;;
35562;SDS011;21665;40.108;18.302;2023-02-19T17:04:53;26.70;;;24.40;;
35562;SDS011;21665;40.108;18.302;2023-02-19T17:07:37;27.10;;;24.83;;
35562;SDS011;21665;40.108;18.302;2023-02-19T17:10:12;29.80;;;26.90;;
35562;SDS011;21665;40.108;18.302;2023-02-19T17:12:56;28.20;;;25.80;;
35562;SDS011;21665;40.108;18.302;2023-02-19T17:15:23;26.80;;;24.52;;
35562;SDS011;21665;40.108;18.302;2023-02-19T17:17:54;29.08;;;26.48;;
35562;SDS011;21665;40.108;18.302;2023-02-19T17:20:22;32.25;;;29.15;;
35562;SDS011;21665;40.108;18.302;2023-02-19T17:22:57;34.88;;;30.90;;
35562;SDS011;21665;40.108;18.302;2023-02-19T17:25:29;33.95;;;30.42;;
35562;SDS011;21665;40.108;18.302;2023-02-19T17:27:59;33.03;;;29.77;;
35562;SDS011;21665;40.108;18.302;2023-02-19T17:30:32;30.58;;;27.67;;
35562;SDS011;21665;40.108;18.302;2023-02-19T17:33:02;28.30;;;25.80;;
35562;SDS011;21665;40.108;18.302;2023-02-19T17:35:31;27.88;;;25.45;;
35562;SDS011;21665;40.108;18.302;2023-02-19T17:38:27;29.67;;;26.58;;
35562;SDS011;21665;40.108;18.302;2023-02-19T17:40:53;27.40;;;24.88;;
35562;SDS011;21665;40.108;18.302;2023-02-19T17:43:25;27.30;;;24.92;;
35562;SDS011;21665;40.108;18.302;2023-02-19T17:45:57;25.75;;;23.42;;
35562;SDS011;21665;40.108;18.302;2023-02-19T17:48:27;26.10;;;23.70;;
35562;SDS011;21665;40.108;18.302;2023-02-19T17:50:57;29.15;;;26.25;;
35562;SDS011;21665;40.108;18.302;2023-02-19T17:53:34;31.77;;;28.38;;
35562;SDS011;21665;40.108;18.302;2023-02-19T17:56:15;38.63;;;34.22;;
35562;SDS011;21665;40.108;18.302;2023-02-19T17:58:56;35.47;;;31.77;;
35562;SDS011;21665;40.108;18.302;2023-02-19T18:01:26;34.28;;;28.67;;
35562;SDS011;21665;40.108;18.302;2023-02-19T18:04:12;29.42;;;26.63;;
35562;SDS011;21665;40.108;18.302;2023-02-19T18:06:47;26.77;;;24.23;;
35562;SDS011;21665;40.108;18.302;2023-02-19T18:09:44;27.00;;;24.38;;
35562;SDS011;21665;40.108;18.302;2023-02-19T18:12:17;27.40;;;24.73;;
35562;SDS011;21665;40.108;18.302;2023-02-19T18:14:51;25.33;;;22.92;;
35562;SDS011;21665;40.108;18.302;2023-02-19T18:17:21;25.00;;;22.63;;
35562;SDS011;21665;40.108;18.302;2023-02-19T18:19:56;25.35;;;22.65;;
35562;SDS011;21665;40.108;18.302;2023-02-19T18:22:26;24.05;;;21.85;;
35562;SDS011;21665;40.108;18.302;2023-02-19T18:24:53;23.48;;;21.23;;
35562;SDS011;21665;40.108;18.302;2023-02-19T18:27:25;24.05;;;21.85;;